Airfield :
LOGIN :

Register | Disclaimer

   EN    FR    IT 

 










Legend :    VFR   Marginal VFR   IFR   Intensive IFR   Very Intensive IFR
Visi :
Ceiling :
>= 8 km
>= 3000ft
5 to 8 km
1000 to 3000 ft
1500m to 5 km
500 to 1000 ft
800 to 1500m
200 to 500 ft
< 800m
< 200 ft
Symbols :   Thunderstorms  Fog  Heavy snow  Heavy precipitations  Wind > 20 kt
SIGMETs :     Misc.  Thunderstorms  Icing  Turbulence  Mountain Waves  Volcanic Ashes







- Airport Elevation : 13 ft
- IATA code : OST


EBOS - Oostend bruges Int.

CURRENT METAR :
  • 220850Z 18012KT 9999 FEW022 10/08 Q1006 TEMPO 25018G28KT

EXPIRED METARs :
  • 220820Z 19013KT 9999 SCT022 10/08 Q1006 TEMPO 25018G28KT
  • 220750Z 19012KT 9999 SCT018 BKN022 10/08 Q1006 TEMPO 25018G28KT
  • 220720Z 20015KT 9999 BKN023 11/08 Q1006 TEMPO 25018G28KT
  • 220650Z 20012KT 9999 FEW024 BKN029 11/08 Q1006 TEMPO 25018G28KT
  • 220620Z 19012KT 9999 FEW024 BKN029 10/08 Q1006 TEMPO 25018G28KT

TAF TAF EBOS
Valid from the 22 at 06:00 until the 23 at 12:00 UTC


220503Z 2206/2312 20015KT 9999 SCT020
PROB40
TEMPO 2206/2224 20015G30KT
BECMG 2300/2302 19020G35KT
BECMG 2309/2311 23017G30KT
PROB30
TEMPO 2309/2312 4000 SHRA
No reported NOTAMs for that airfield.



MET'MAP, your aeronautical weather chart ! - Copyright ORBIFLY December 2007 - Disclaimer

ORBIFLY MET'MAP TEAM :

Programming & Development : Alexandra Zaïnal
Concept & Development : Baudouin d'Aumeries
Co-Development & Prog : Marc-Olivier Méhu
Technical & hardware support : Manuel Goepfert

Contact : metmap@orbifly.com




SOURCES & CREDITS :

   NOAA